Time;durP1;ratioP1;P1;durP2;ratioP2;P2;SDS_P1;SDS_P2;PMS_P1;PMS_P2;Temp;Humidity;BMP_temperature;BMP_pressure;BME280_temperature;BME280_humidity;BME280_pressure;Samples;Min_cycle;Max_cycle;Signal;HPM_P1;HPM_P2
2022/07/11 00:00:23;;;;;;;;;;;;;;;28.41;42.84;98732.22;2092039;28;19944;-46
2022/07/11 00:01:24;;;;;;;;;;;;;;;28.39;42.95;98732.50;2089902;28;19924;-46
2022/07/11 00:02:28;;;;;;;;;;;;;;;28.38;43.12;98733.56;2084389;28;19933;-47
2022/07/11 00:03:28;;;;;;;;;;;;;;;28.39;42.92;98734.38;2090581;28;19939;-45
2022/07/11 00:04:30;;;;;;;;;;;;;;;28.40;42.71;98733.31;2091022;28;19938;-47
2022/07/11 00:05:31;;;;;;;;;;;;;;;28.41;42.88;98733.03;2091860;28;19941;-45
2022/07/11 00:06:32;;;;;;;;;;;;;;;28.41;42.92;98734.94;2091086;28;19925;-48
2022/07/11 00:07:33;;;;;;;;;;;;;;;28.39;42.79;98740.69;2091518;28;19978;-46
2022/07/11 00:08:35;;;;;;;;;;;;;;;28.38;43.15;98739.00;2091736;28;19928;-46
2022/07/11 00:09:35;;;;;;;;;;;;;;;28.39;43.01;98737.94;2091571;28;20008;-49
2022/07/11 00:10:37;;;;;;;;;;;;;;;28.38;43.13;98743.66;2090854;28;19951;-46
2022/07/11 00:11:37;;;;;;;;;;;;;;;28.38;42.94;98735.47;2091194;28;19936;-49
2022/07/11 00:12:39;;;;;;;;;;;;;;;28.37;43.15;98736.56;2089096;28;20982;-48
2022/07/11 00:13:40;;;;;;;;;;;;;;;28.34;43.00;98742.56;2089016;28;19936;-47
2022/07/11 00:14:41;;;;;;;;;;;;;;;28.35;42.89;98734.09;2090401;28;19981;-46
2022/07/11 00:15:43;;;;;;;;;;;;;;;28.35;43.18;98733.28;2092162;28;20072;-45
2022/07/11 00:16:43;;;;;;;;;;;;;;;28.35;43.00;98730.56;2089060;28;19935;-49
2022/07/11 00:17:46;;;;;;;;;;;;;;;28.34;43.20;98732.47;2088434;28;19924;-49
2022/07/11 00:18:47;;;;;;;;;;;;;;;28.35;43.04;98736.00;2091478;28;20772;-47
2022/07/11 00:19:48;;;;;;;;;;;;;;;28.36;43.05;98732.19;2090832;28;19928;-47
2022/07/11 00:20:49;;;;;;;;;;;;;;;28.36;42.96;98734.91;2090351;28;19932;-47
2022/07/11 00:21:51;;;;;;;;;;;;;;;28.31;43.05;98727.53;2091128;28;20055;-47
2022/07/11 00:22:53;;;;;;;;;;;;;;;28.32;43.01;98731.09;2092152;28;19925;-46
2022/07/11 00:23:53;;;;;;;;;;;;;;;28.31;43.15;98726.72;2091799;28;19928;-47
2022/07/11 00:24:55;;;;;;;;;;;;;;;28.29;43.07;98733.25;2089559;28;19924;-49
2022/07/11 00:25:56;;;;;;;;;;;;;;;28.28;42.88;98728.91;2090250;28;19924;-47
2022/07/11 00:26:57;;;;;;;;;;;;;;;28.28;42.82;98734.34;2090549;28;19975;-46
2022/07/11 00:27:58;;;;;;;;;;;;;;;28.30;42.76;98728.59;2082237;28;20027;-46
2022/07/11 00:29:00;;;;;;;;;;;;;;;28.31;43.15;98732.19;2083158;28;19943;-50
2022/07/11 00:30:00;;;;;;;;;;;;;;;28.32;43.03;98739.28;2089076;28;20396;-48
2022/07/11 00:31:02;;;;;;;;;;;;;;;28.31;43.05;98737.63;2090410;28;19950;-47
2022/07/11 00:32:03;;;;;;;;;;;;;;;28.27;42.95;98729.97;2087082;28;19928;-48
2022/07/11 00:33:06;;;;;;;;;;;;;;;28.28;42.63;98734.34;2087860;28;20043;-46
2022/07/11 00:34:06;;;;;;;;;;;;;;;28.29;43.08;98735.16;2088053;28;19933;-49
2022/07/11 00:35:08;;;;;;;;;;;;;;;28.31;42.83;98737.63;2088592;28;20031;-47
2022/07/11 00:36:09;;;;;;;;;;;;;;;28.27;43.06;98731.88;2089372;28;19928;-49
2022/07/11 00:37:11;;;;;;;;;;;;;;;28.28;42.74;98739.81;2089858;28;20475;-46
2022/07/11 00:38:11;;;;;;;;;;;;;;;28.28;42.66;98733.53;2088581;28;19932;-47
2022/07/11 00:39:13;;;;;;;;;;;;;;;28.30;42.79;98734.06;2090734;28;20550;-47
2022/07/11 00:40:14;;;;;;;;;;;;;;;28.27;42.56;98732.69;2091066;28;19924;-48
2022/07/11 00:41:16;;;;;;;;;;;;;;;28.27;42.80;98732.69;2089919;28;20069;-46
2022/07/11 00:42:18;;;;;;;;;;;;;;;28.27;42.85;98729.97;2091818;28;20011;-47
2022/07/11 00:43:28;;;;;;;;;;;;;;;28.26;42.71;98733.78;2089520;28;20649;-48
2022/07/11 00:44:30;;;;;;;;;;;;;;;28.27;42.81;98726.41;2090627;28;19958;-46
2022/07/11 00:45:31;;;;;;;;;;;;;;;28.26;42.82;98719.31;2091395;28;20047;-47
2022/07/11 00:46:32;;;;;;;;;;;;;;;28.26;42.54;98728.31;2088408;28;20012;-48
2022/07/11 00:47:33;;;;;;;;;;;;;;;28.25;42.90;98728.56;2091206;28;19924;-48
2022/07/11 00:48:36;;;;;;;;;;;;;;;28.26;42.66;98724.78;2090336;28;19975;-48
2022/07/11 00:49:37;;;;;;;;;;;;;;;28.26;42.79;98725.59;2090307;28;19936;-47
2022/07/11 00:50:39;;;;;;;;;;;;;;;28.23;42.68;98726.13;2084005;28;19932;-46
2022/07/11 00:51:39;;;;;;;;;;;;;;;28.23;42.79;98723.41;2086304;28;19929;-47
2022/07/11 00:52:41;;;;;;;;;;;;;;;28.22;42.99;98726.38;2090350;28;19964;-50
2022/07/11 00:53:42;;;;;;;;;;;;;;;28.22;42.71;98729.09;2090470;28;19966;-47
2022/07/11 00:54:44;;;;;;;;;;;;;;;28.21;43.01;98725.56;2086646;28;19940;-45
2022/07/11 00:55:45;;;;;;;;;;;;;;;28.20;42.86;98726.66;2087960;28;19936;-47
2022/07/11 00:56:46;;;;;;;;;;;;;;;28.20;42.49;98721.22;2084125;28;19928;-46
2022/07/11 00:57:48;;;;;;;;;;;;;;;28.21;42.69;98728.28;2088764;28;19925;-46
2022/07/11 00:58:51;;;;;;;;;;;;;;;28.20;42.39;98732.13;2086030;28;20048;-45
2022/07/11 00:59:52;;;;;;;;;;;;;;;28.19;42.61;98725.00;2074710;28;19928;-48
2022/07/11 01:00:54;;;;;;;;;;;;;;;28.18;42.63;98719.84;2086252;28;19976;-46
2022/07/11 01:01:55;;;;;;;;;;;;;;;28.18;42.69;98723.38;2088118;28;19933;-47
2022/07/11 01:02:57;;;;;;;;;;;;;;;28.20;42.76;98723.13;2087508;28;20023;-47
2022/07/11 01:04:01;;;;;;;;;;;;;;;28.20;42.86;98720.41;2087111;28;20298;-49
2022/07/11 01:05:02;;;;;;;;;;;;;;;28.19;42.79;98726.91;2088542;28;20567;-46
2022/07/11 01:06:03;;;;;;;;;;;;;;;28.19;42.72;98724.19;2085943;28;20391;-46
2022/07/11 01:07:05;;;;;;;;;;;;;;;28.19;42.96;98725.00;2088937;28;20023;-48
2022/07/11 01:08:06;;;;;;;;;;;;;;;28.20;42.72;98723.94;2090322;28;20007;-48
2022/07/11 01:09:07;;;;;;;;;;;;;;;28.19;42.44;98727.72;2082597;28;19932;-48
2022/07/11 01:10:08;;;;;;;;;;;;;;;28.20;42.40;98729.41;2086206;28;20054;-46
2022/07/11 01:11:12;;;;;;;;;;;;;;;28.19;42.69;98725.00;2085823;28;19976;-48
2022/07/11 01:12:12;;;;;;;;;;;;;;;28.20;42.54;98729.41;2086636;28;19932;-48
2022/07/11 01:13:14;;;;;;;;;;;;;;;28.18;42.62;98722.56;2084472;28;20574;-47
2022/07/11 01:14:15;;;;;;;;;;;;;;;28.17;42.54;98724.47;2089152;28;20008;-47
2022/07/11 01:15:17;;;;;;;;;;;;;;;28.15;42.80;98718.44;2085907;28;19928;-48
2022/07/11 01:16:18;;;;;;;;;;;;;;;28.16;42.72;98722.81;2087203;28;19952;-46
2022/07/11 01:17:20;;;;;;;;;;;;;;;28.15;42.78;98714.91;2083424;28;19939;-47
2022/07/11 01:18:20;;;;;;;;;;;;;;;28.15;42.47;98721.19;2084498;28;19940;-48
2022/07/11 01:19:23;;;;;;;;;;;;;;;28.13;42.66;98719.81;2087067;28;19931;-48
2022/07/11 01:20:24;;;;;;;;;;;;;;;28.16;42.84;98722.81;2087471;28;20393;-47
2022/07/11 01:21:27;;;;;;;;;;;;;;;28.14;42.70;98719.53;2088469;28;19959;-46
2022/07/11 01:22:29;;;;;;;;;;;;;;;28.13;42.58;98717.88;2086423;28;20054;-48
2022/07/11 01:23:32;;;;;;;;;;;;;;;28.13;42.53;98719.81;2090287;28;19951;-48
2022/07/11 01:24:32;;;;;;;;;;;;;;;28.12;42.65;98715.44;2086116;28;20506;-49
2022/07/11 01:25:34;;;;;;;;;;;;;;;28.12;42.68;98718.97;2086721;28;19929;-46
2022/07/11 01:26:36;;;;;;;;;;;;;;;28.13;42.71;98715.16;2086360;28;19928;-45
2022/07/11 01:27:37;;;;;;;;;;;;;;;28.14;42.72;98725.00;2087838;28;20374;-49
2022/07/11 01:28:38;;;;;;;;;;;;;;;28.15;42.39;98723.91;2087165;28;19925;-46
2022/07/11 01:29:39;;;;;;;;;;;;;;;28.17;42.60;98726.38;2089274;28;20119;-47
2022/07/11 01:30:40;;;;;;;;;;;;;;;28.16;42.70;98722.81;2080954;28;19935;-48
2022/07/11 01:31:42;;;;;;;;;;;;;;;28.16;42.50;98722.00;2087722;28;20406;-48
2022/07/11 01:32:43;;;;;;;;;;;;;;;28.17;42.55;98721.75;2079987;28;20471;-47
2022/07/11 01:33:45;;;;;;;;;;;;;;;28.17;42.57;98724.47;2089130;28;19925;-46
2022/07/11 01:34:45;;;;;;;;;;;;;;;28.17;42.54;98723.66;2088030;28;19928;-46
2022/07/11 01:35:47;;;;;;;;;;;;;;;28.16;42.26;98720.09;2088922;28;19929;-50
2022/07/11 01:36:48;;;;;;;;;;;;;;;28.17;42.65;98727.19;2084464;28;19948;-50
2022/07/11 01:37:50;;;;;;;;;;;;;;;28.18;42.55;98717.09;2088750;28;19928;-49
2022/07/11 01:38:52;;;;;;;;;;;;;;;28.17;42.35;98713.56;2082624;28;19932;-48
2022/07/11 01:39:54;;;;;;;;;;;;;;;28.17;42.47;98719.00;2091585;28;20011;-47
2022/07/11 01:40:55;;;;;;;;;;;;;;;28.16;42.63;98717.34;2090195;28;20020;-50
2022/07/11 01:41:57;;;;;;;;;;;;;;;28.16;42.41;98708.34;2092658;28;20002;-46
2022/07/11 01:42:58;;;;;;;;;;;;;;;28.15;42.71;98707.53;2089346;28;19928;-46
2022/07/11 01:44:00;;;;;;;;;;;;;;;28.14;42.74;98714.09;2088951;28;20333;-47
2022/07/11 01:45:00;;;;;;;;;;;;;;;28.15;42.89;98704.00;2088954;28;19955;-49
2022/07/11 01:46:02;;;;;;;;;;;;;;;28.13;42.60;98706.97;2086724;28;19928;-46
2022/07/11 01:47:03;;;;;;;;;;;;;;;28.13;42.67;98706.97;2083663;28;19932;-46
2022/07/11 01:48:05;;;;;;;;;;;;;;;28.14;42.58;98703.19;2087979;28;20401;-47
2022/07/11 01:49:05;;;;;;;;;;;;;;;28.14;42.45;98708.63;2086381;28;19940;-47
2022/07/11 01:50:07;;;;;;;;;;;;;;;28.14;42.85;98705.06;2088495;28;19932;-49
2022/07/11 01:51:08;;;;;;;;;;;;;;;28.14;42.67;98694.16;2089123;28;19936;-46
2022/07/11 01:52:10;;;;;;;;;;;;;;;28.15;42.70;98698.56;2090096;28;20023;-49
2022/07/11 01:53:11;;;;;;;;;;;;;;;28.14;42.88;98697.72;2089600;28;19935;-47
2022/07/11 01:54:14;;;;;;;;;;;;;;;28.13;42.90;98698.00;2092276;28;20475;-48
2022/07/11 01:55:14;;;;;;;;;;;;;;;28.13;43.01;98696.06;2087527;28;19928;-49
2022/07/11 01:56:16;;;;;;;;;;;;;;;28.15;42.90;98696.63;2091362;28;19931;-46
2022/07/11 01:57:17;;;;;;;;;;;;;;;28.14;43.03;98703.19;2087479;28;19928;-47
2022/07/11 01:58:18;;;;;;;;;;;;;;;28.14;42.82;98703.19;2078464;28;20504;-45
2022/07/11 01:59:19;;;;;;;;;;;;;;;28.14;42.89;98703.19;2085052;28;20459;-46
2022/07/11 02:00:21;;;;;;;;;;;;;;;28.13;42.67;98700.72;2088480;28;20068;-49
2022/07/11 02:01:22;;;;;;;;;;;;;;;28.14;42.70;98697.72;2088343;28;19940;-47
2022/07/11 02:02:23;;;;;;;;;;;;;;;28.15;42.72;98707.53;2084242;28;20277;-48
2022/07/11 02:03:24;;;;;;;;;;;;;;;28.14;42.82;98705.06;2087912;28;19932;-46
2022/07/11 02:04:26;;;;;;;;;;;;;;;28.14;42.87;98705.91;2087105;28;20417;-47
2022/07/11 02:05:26;;;;;;;;;;;;;;;28.13;42.82;98703.44;2087638;28;19940;-47
2022/07/11 02:06:28;;;;;;;;;;;;;;;28.15;42.80;98712.19;2089726;28;19932;-46
2022/07/11 02:08:48;;;;;;;;;;;;;;;28.14;42.81;98713.25;2084317;28;21119;-47
2022/07/11 02:09:50;;;;;;;;;;;;;;;28.15;42.41;98712.19;2089142;28;19952;-48
2022/07/11 02:10:53;;;;;;;;;;;;;;;28.15;42.54;98709.47;2091290;28;19928;-51
2022/07/11 02:11:53;;;;;;;;;;;;;;;28.14;42.47;98705.91;2089613;28;20397;-47
2022/07/11 02:12:55;;;;;;;;;;;;;;;28.15;42.50;98713.00;2093137;28;19936;-45
2022/07/11 02:13:55;;;;;;;;;;;;;;;28.15;42.38;98712.19;2084675;28;19925;-47
2022/07/11 02:14:57;;;;;;;;;;;;;;;28.14;42.39;98711.38;2090208;28;19928;-49
2022/07/11 02:15:58;;;;;;;;;;;;;;;28.13;42.68;98706.97;2088527;28;19932;-47
2022/07/11 02:16:59;;;;;;;;;;;;;;;28.15;42.31;98712.19;2087741;28;19935;-49
2022/07/11 02:18:01;;;;;;;;;;;;;;;28.14;42.58;98708.63;2088065;28;19958;-47
2022/07/11 02:19:02;;;;;;;;;;;;;;;28.14;42.44;98710.53;2088430;28;19947;-51
2022/07/11 02:20:03;;;;;;;;;;;;;;;28.13;42.18;98709.72;2089675;28;19971;-47
2022/07/11 02:21:05;;;;;;;;;;;;;;;28.14;42.47;98710.53;2088421;28;19935;-46
2022/07/11 02:22:05;;;;;;;;;;;;;;;28.14;42.44;98710.53;2086706;28;19928;-47
2022/07/11 02:23:07;;;;;;;;;;;;;;;28.13;42.19;98708.88;2086250;28;19932;-46
2022/07/11 02:24:08;;;;;;;;;;;;;;;28.13;42.23;98709.72;2084596;28;19935;-46
2022/07/11 02:25:11;;;;;;;;;;;;;;;28.14;42.64;98710.53;2091963;28;19962;-47
2022/07/11 02:26:13;;;;;;;;;;;;;;;28.13;42.13;98715.16;2089684;28;20144;-46
2022/07/11 02:27:14;;;;;;;;;;;;;;;28.12;42.42;98710.81;2086927;28;19932;-48
2022/07/11 02:28:16;;;;;;;;;;;;;;;28.13;42.26;98709.72;2088312;28;19975;-46
2022/07/11 02:29:22;;;;;;;;;;;;;;;28.12;42.28;98710.81;2088216;28;19944;-48
2022/07/11 02:30:23;;;;;;;;;;;;;;;28.12;42.18;98710.00;2090043;28;19932;-46
2022/07/11 02:31:24;;;;;;;;;;;;;;;28.11;42.37;98711.91;2087222;28;19932;-48
2022/07/11 02:32:25;;;;;;;;;;;;;;;28.10;42.59;98706.69;2083416;28;19933;-49
2022/07/11 02:33:26;;;;;;;;;;;;;;;28.10;42.48;98709.44;2086195;28;20483;-48
2022/07/11 02:34:27;;;;;;;;;;;;;;;28.09;42.24;98703.16;2088322;28;19931;-48
2022/07/11 02:35:28;;;;;;;;;;;;;;;28.07;42.17;98710.78;2086515;28;19960;-46
2022/07/11 02:36:30;;;;;;;;;;;;;;;28.08;42.61;98706.94;2089987;28;20646;-46
2022/07/11 02:37:31;;;;;;;;;;;;;;;28.07;42.51;98710.78;2087840;28;19933;-46
2022/07/11 02:38:33;;;;;;;;;;;;;;;28.08;42.46;98712.41;2081057;28;19981;-48
2022/07/11 02:39:34;;;;;;;;;;;;;;;28.08;42.49;98712.41;2083851;28;19930;-46
2022/07/11 02:40:37;;;;;;;;;;;;;;;28.08;42.47;98712.41;2090334;28;19940;-49
2022/07/11 02:41:37;;;;;;;;;;;;;;;28.05;42.45;98708.31;2091776;28;19971;-45
2022/07/11 02:42:39;;;;;;;;;;;;;;;28.06;42.43;98717.31;2090949;28;19935;-45
2022/07/11 02:43:41;;;;;;;;;;;;;;;28.06;42.44;98709.13;2082678;28;20356;-47
2022/07/11 02:44:41;;;;;;;;;;;;;;;28.07;42.14;98716.22;2083375;28;19928;-51
2022/07/11 02:45:43;;;;;;;;;;;;;;;28.05;42.14;98715.66;2088716;28;19924;-49
2022/07/11 02:46:44;;;;;;;;;;;;;;;28.05;42.50;98708.31;2084392;28;19936;-49
2022/07/11 02:47:46;;;;;;;;;;;;;;;28.05;42.34;98702.03;2089442;28;19928;-47
2022/07/11 02:48:46;;;;;;;;;;;;;;;28.05;42.42;98705.59;2088754;28;19935;-48
2022/07/11 02:49:48;;;;;;;;;;;;;;;28.04;42.35;98706.66;2090191;28;20020;-50
2022/07/11 02:50:49;;;;;;;;;;;;;;;28.04;42.15;98697.66;2085069;28;20475;-47
2022/07/11 02:51:50;;;;;;;;;;;;;;;28.02;42.50;98706.09;2089451;28;19933;-47
2022/07/11 02:52:51;;;;;;;;;;;;;;;28.02;42.50;98700.66;2086780;28;19928;-45
2022/07/11 02:53:53;;;;;;;;;;;;;;;28.01;42.39;98704.47;2087939;28;19932;-52
2022/07/11 02:54:53;;;;;;;;;;;;;;;28.01;42.31;98700.94;2088425;28;19928;-48
2022/07/11 02:55:57;;;;;;;;;;;;;;;28.02;42.46;98711.56;2089330;28;19934;-49
2022/07/11 02:56:57;;;;;;;;;;;;;;;28.02;42.23;98714.28;2088964;28;19928;-48
2022/07/11 02:57:59;;;;;;;;;;;;;;;28.03;42.43;98712.41;2088054;28;20007;-48
2022/07/11 02:58:59;;;;;;;;;;;;;;;28.02;42.42;98708.81;2084767;28;19928;-47
2022/07/11 03:00:01;;;;;;;;;;;;;;;28.02;42.36;98710.75;2090734;28;19934;-47
2022/07/11 03:01:02;;;;;;;;;;;;;;;28.01;42.32;98707.19;2087086;28;20550;-49
2022/07/11 03:02:04;;;;;;;;;;;;;;;28.01;42.65;98701.75;2087836;28;19939;-48
2022/07/11 03:03:05;;;;;;;;;;;;;;;28.01;42.35;98715.38;2089720;28;20561;-49
2022/07/11 03:04:06;;;;;;;;;;;;;;;27.99;42.50;98708.53;2089237;28;19967;-46
2022/07/11 03:05:07;;;;;;;;;;;;;;;27.99;42.46;98708.53;2087158;28;19931;-47
2022/07/11 03:06:09;;;;;;;;;;;;;;;27.98;42.60;98710.44;2083024;28;22939;-49
2022/07/11 03:07:10;;;;;;;;;;;;;;;27.98;42.48;98709.63;2082674;28;20472;-48
2022/07/11 03:08:11;;;;;;;;;;;;;;;27.98;42.61;98712.38;2089021;28;19951;-48
2022/07/11 03:09:12;;;;;;;;;;;;;;;28.00;42.14;98715.63;2089266;28;20233;-48
2022/07/11 03:10:14;;;;;;;;;;;;;;;27.99;42.41;98711.25;2086363;28;20024;-47
2022/07/11 03:11:16;;;;;;;;;;;;;;;27.98;42.34;98710.44;2088751;28;19924;-50
2022/07/11 03:12:18;;;;;;;;;;;;;;;27.98;42.47;98713.19;2086803;28;19932;-47
2022/07/11 03:13:18;;;;;;;;;;;;;;;27.99;42.27;98714.00;2089573;28;20012;-48
2022/07/11 03:14:20;;;;;;;;;;;;;;;28.00;42.54;98711.00;2091760;28;20143;-48
2022/07/11 03:15:22;;;;;;;;;;;;;;;28.00;42.12;98715.63;2089438;28;19933;-46
2022/07/11 03:16:22;;;;;;;;;;;;;;;27.97;42.09;98706.09;2088883;28;20570;-46
2022/07/11 03:17:24;;;;;;;;;;;;;;;27.99;42.12;98714.00;2088520;28;20011;-47
2022/07/11 03:18:25;;;;;;;;;;;;;;;28.00;42.23;98710.16;2087859;28;19979;-46
2022/07/11 03:19:26;;;;;;;;;;;;;;;28.01;42.43;98712.66;2087710;28;19939;-47
2022/07/11 03:20:27;;;;;;;;;;;;;;;28.02;42.35;98710.75;2085764;28;19932;-47
2022/07/11 03:21:29;;;;;;;;;;;;;;;28.00;42.25;98718.34;2087480;28;20027;-48
2022/07/11 03:22:29;;;;;;;;;;;;;;;27.99;42.17;98714.81;2086965;28;19932;-49
2022/07/11 03:23:31;;;;;;;;;;;;;;;28.00;41.99;98710.16;2086545;28;19929;-48
2022/07/11 03:24:32;;;;;;;;;;;;;;;27.99;42.18;98708.53;2089124;28;20555;-46
2022/07/11 03:25:34;;;;;;;;;;;;;;;27.97;42.30;98705.25;2087872;28;19924;-51
2022/07/11 03:26:36;;;;;;;;;;;;;;;27.96;42.22;98714.53;2089725;28;19935;-47
2022/07/11 03:27:37;;;;;;;;;;;;;;;27.97;42.09;98710.69;2089184;28;20267;-46
2022/07/11 03:28:38;;;;;;;;;;;;;;;27.96;42.07;98711.78;2088319;28;19929;-47
2022/07/11 03:29:40;;;;;;;;;;;;;;;27.98;42.27;98707.72;2088276;28;19931;-46
2022/07/11 03:30:41;;;;;;;;;;;;;;;27.97;42.26;98708.81;2089285;28;19928;-45
2022/07/11 03:31:42;;;;;;;;;;;;;;;27.97;42.21;98717.00;2086505;28;20320;-45
2022/07/11 03:32:43;;;;;;;;;;;;;;;27.96;42.39;98709.06;2085624;28;19928;-47
2022/07/11 03:33:44;;;;;;;;;;;;;;;27.96;42.09;98715.34;2088530;28;19933;-46
2022/07/11 03:35:40;;;;;;;;;;;;;;;27.95;42.48;98707.44;2091697;28;19931;-46
2022/07/11 03:36:07;;;;;;;;;;;;;;;27.95;42.11;98715.63;2091485;28;19950;-46
2022/07/11 03:37:10;;;;;;;;;;;;;;;27.94;42.32;98711.22;2088431;28;20703;-49
2022/07/11 03:38:11;;;;;;;;;;;;;;;27.93;42.42;98710.41;2090196;28;20339;-47
2022/07/11 03:39:13;;;;;;;;;;;;;;;27.93;42.63;98710.41;2090885;28;19932;-46
2022/07/11 03:40:13;;;;;;;;;;;;;;;27.93;42.56;98713.13;2091356;28;19931;-48
2022/07/11 03:41:15;;;;;;;;;;;;;;;27.93;42.60;98710.41;2092614;28;19928;-46
2022/07/11 03:42:17;;;;;;;;;;;;;;;27.91;42.29;98707.13;2090663;28;19925;-47
2022/07/11 03:43:19;;;;;;;;;;;;;;;27.92;42.77;98708.78;2092188;28;20032;-46
2022/07/11 03:44:19;;;;;;;;;;;;;;;27.91;42.29;98715.31;2090664;28;19928;-49
2022/07/11 03:45:21;;;;;;;;;;;;;;;27.92;42.75;98710.69;2087288;28;20026;-45
2022/07/11 03:46:21;;;;;;;;;;;;;;;27.91;42.81;98712.56;2087560;28;19977;-45
2022/07/11 03:47:23;;;;;;;;;;;;;;;27.89;42.53;98713.91;2089894;28;19929;-48
2022/07/11 03:48:23;;;;;;;;;;;;;;;27.91;42.52;98711.75;2089321;28;20205;-45
2022/07/11 03:49:25;;;;;;;;;;;;;;;27.91;42.56;98706.31;2089853;28;19932;-46
2022/07/11 03:50:26;;;;;;;;;;;;;;;27.89;42.77;98713.91;2085458;28;19932;-48
2022/07/11 03:51:27;;;;;;;;;;;;;;;27.90;42.94;98716.41;2086653;28;19940;-46
2022/07/11 03:52:28;;;;;;;;;;;;;;;27.91;43.04;98719.94;2089613;28;19928;-46
2022/07/11 03:53:29;;;;;;;;;;;;;;;27.89;42.75;98711.19;2089689;28;19924;-45
2022/07/11 03:54:30;;;;;;;;;;;;;;;27.89;43.02;98716.66;2090024;28;19932;-46
2022/07/11 03:55:32;;;;;;;;;;;;;;;27.89;43.01;98713.91;2089011;28;20525;-49
2022/07/11 03:56:32;;;;;;;;;;;;;;;27.89;42.91;98711.19;2088979;28;20006;-48
2022/07/11 03:57:36;;;;;;;;;;;;;;;27.89;43.33;98714.75;2088710;28;20019;-45
2022/07/11 03:58:38;;;;;;;;;;;;;;;27.88;43.34;98709.56;2085749;28;20051;-46
2022/07/11 03:59:38;;;;;;;;;;;;;;;27.88;43.35;98712.28;2089695;28;19935;-46
2022/07/11 04:00:40;;;;;;;;;;;;;;;27.85;43.28;98706.28;2087190;28;19933;-49
2022/07/11 04:01:40;;;;;;;;;;;;;;;27.85;43.62;98708.19;2084467;28;19938;-47
2022/07/11 04:02:42;;;;;;;;;;;;;;;27.84;43.54;98709.28;2086687;28;20642;-48
2022/07/11 04:03:43;;;;;;;;;;;;;;;27.84;43.26;98718.28;2088255;28;19936;-46
2022/07/11 04:04:44;;;;;;;;;;;;;;;27.84;43.50;98715.53;2086086;28;19932;-46
2022/07/11 04:05:45;;;;;;;;;;;;;;;27.84;43.63;98712.81;2087129;28;20005;-47
2022/07/11 04:06:46;;;;;;;;;;;;;;;27.84;43.29;98712.00;2087447;28;19928;-48
2022/07/11 04:07:47;;;;;;;;;;;;;;;27.85;43.63;98719.09;2087038;28;19932;-48
2022/07/11 04:08:49;;;;;;;;;;;;;;;27.85;43.62;98714.44;2087127;28;20900;-47
2022/07/11 04:09:49;;;;;;;;;;;;;;;27.85;43.41;98717.16;2087446;28;19928;-47
2022/07/11 04:10:51;;;;;;;;;;;;;;;27.84;43.63;98717.47;2088856;28;20023;-48
2022/07/11 04:11:52;;;;;;;;;;;;;;;27.85;43.77;98721.81;2088482;28;20034;-46
2022/07/11 04:12:55;;;;;;;;;;;;;;;27.84;43.40;98723.72;2091428;28;20059;-47
2022/07/11 04:13:56;;;;;;;;;;;;;;;27.83;43.61;98716.63;2084779;28;19928;-47
2022/07/11 04:14:57;;;;;;;;;;;;;;;27.82;43.58;98712.25;2087985;28;19925;-46
2022/07/11 04:15:58;;;;;;;;;;;;;;;27.82;43.69;98720.44;2091142;28;20338;-48
2022/07/11 04:16:59;;;;;;;;;;;;;;;27.82;43.54;98725.88;2088956;28;19928;-49
2022/07/11 04:18:00;;;;;;;;;;;;;;;27.82;43.64;98714.16;2091200;28;19950;-48
2022/07/11 04:19:01;;;;;;;;;;;;;;;27.83;43.55;98722.09;2091076;28;19939;-49
2022/07/11 04:20:03;;;;;;;;;;;;;;;27.83;43.47;98722.09;2087616;28;19929;-47
2022/07/11 04:21:04;;;;;;;;;;;;;;;27.79;43.82;98715.50;2087764;28;19958;-46
2022/07/11 04:22:06;;;;;;;;;;;;;;;27.79;43.90;98715.50;2088218;28;20602;-46
2022/07/11 04:23:06;;;;;;;;;;;;;;;27.80;43.77;98719.88;2087356;28;19932;-46
2022/07/11 04:24:08;;;;;;;;;;;;;;;27.81;43.58;98716.06;2090329;28;20004;-46
2022/07/11 04:25:08;;;;;;;;;;;;;;;27.81;43.80;98713.34;2087836;28;19928;-48
2022/07/11 04:26:10;;;;;;;;;;;;;;;27.83;43.89;98721.25;2086309;28;19928;-47
2022/07/11 04:27:11;;;;;;;;;;;;;;;27.81;43.82;98718.78;2086980;28;20466;-47
2022/07/11 04:28:14;;;;;;;;;;;;;;;27.81;43.75;98724.25;2084759;28;19928;-50
2022/07/11 04:29:14;;;;;;;;;;;;;;;27.82;43.84;98720.44;2086507;28;20592;-47
2022/07/11 04:30:16;;;;;;;;;;;;;;;27.80;43.63;98721.78;2086126;28;19978;-50
2022/07/11 04:31:16;;;;;;;;;;;;;;;27.79;43.83;98720.09;2089393;28;19932;-47
2022/07/11 04:32:18;;;;;;;;;;;;;;;27.78;44.08;98722.03;2090289;28;20865;-45
2022/07/11 04:33:20;;;;;;;;;;;;;;;27.79;43.92;98723.69;2087989;28;20684;-47
2022/07/11 04:34:20;;;;;;;;;;;;;;;27.78;43.98;98721.19;2088062;28;19942;-46
2022/07/11 04:35:23;;;;;;;;;;;;;;;27.76;44.16;98716.00;2084391;28;20014;-48
2022/07/11 04:36:23;;;;;;;;;;;;;;;27.77;43.80;98725.00;2083996;28;19956;-47
2022/07/11 04:37:26;;;;;;;;;;;;;;;27.77;43.75;98725.00;2087855;28;19940;-48
2022/07/11 04:38:28;;;;;;;;;;;;;;;27.76;44.17;98715.19;2087526;28;20709;-46
2022/07/11 04:39:28;;;;;;;;;;;;;;;27.77;44.04;98723.09;2088098;28;20425;-47
2022/07/11 04:40:30;;;;;;;;;;;;;;;27.78;43.81;98723.94;2087483;28;19939;-49
2022/07/11 04:41:31;;;;;;;;;;;;;;;27.77;43.95;98717.63;2089411;28;19942;-46
2022/07/11 04:42:32;;;;;;;;;;;;;;;27.79;43.83;98720.09;2087188;28;19935;-48
2022/07/11 04:43:36;;;;;;;;;;;;;;;27.78;44.09;98721.19;2088056;28;20935;-48
2022/07/11 04:44:37;;;;;;;;;;;;;;;27.79;43.83;98726.41;2087879;28;19964;-47
2022/07/11 04:45:39;;;;;;;;;;;;;;;27.78;44.22;98730.19;2089388;28;20311;-47
2022/07/11 04:46:39;;;;;;;;;;;;;;;27.78;44.06;98726.66;2089879;28;19928;-47
2022/07/11 04:47:41;;;;;;;;;;;;;;;27.78;44.20;98726.66;2088497;28;19929;-48
2022/07/11 04:48:42;;;;;;;;;;;;;;;27.77;44.31;98727.72;2089089;28;20578;-47
2022/07/11 04:49:46;;;;;;;;;;;;;;;27.77;44.17;98727.72;2090640;28;19936;-47
2022/07/11 04:50:47;;;;;;;;;;;;;;;27.77;44.08;98725.81;2086919;28;19932;-47
2022/07/11 04:51:48;;;;;;;;;;;;;;;27.79;43.95;98731.84;2090184;28;20015;-46
2022/07/11 04:52:49;;;;;;;;;;;;;;;27.79;44.26;98731.84;2087263;28;19928;-46
2022/07/11 04:53:50;;;;;;;;;;;;;;;27.77;44.30;98733.16;2088007;28;20019;-45
2022/07/11 04:54:51;;;;;;;;;;;;;;;27.76;44.20;98732.34;2087396;28;19929;-46
2022/07/11 04:55:53;;;;;;;;;;;;;;;27.77;44.47;98728.53;2089792;28;19928;-48
2022/07/11 04:56:53;;;;;;;;;;;;;;;27.78;44.22;98730.19;2089016;28;20550;-46
2022/07/11 04:57:55;;;;;;;;;;;;;;;27.78;43.98;98723.94;2087828;28;19925;-48
2022/07/11 04:58:57;;;;;;;;;;;;;;;27.77;44.39;98725.00;2087772;28;19956;-46
2022/07/11 05:00:00;;;;;;;;;;;;;;;27.76;44.42;98726.09;2087761;28;19925;-47
2022/07/11 05:01:00;;;;;;;;;;;;;;;27.76;44.15;98728.81;2085449;28;19978;-46
2022/07/11 05:02:03;;;;;;;;;;;;;;;27.78;44.48;98734.84;2087746;28;20386;-46
2022/07/11 05:03:03;;;;;;;;;;;;;;;27.79;44.39;98733.72;2089984;28;19948;-46
2022/07/11 05:04:05;;;;;;;;;;;;;;;27.77;44.02;98733.97;2087726;28;20355;-46
2022/07/11 05:05:06;;;;;;;;;;;;;;;27.78;44.26;98735.66;2088150;28;19978;-49
2022/07/11 05:06:08;;;;;;;;;;;;;;;27.80;44.40;98736.25;2086820;28;20544;-48
2022/07/11 05:07:08;;;;;;;;;;;;;;;27.81;44.10;98739.78;2089026;28;19928;-45
2022/07/11 05:08:10;;;;;;;;;;;;;;;27.79;44.45;98740.03;2089628;28;19936;-45
2022/07/11 05:09:11;;;;;;;;;;;;;;;27.79;44.12;98742.75;2088333;28;19928;-47
2022/07/11 05:10:12;;;;;;;;;;;;;;;27.78;44.50;98745.72;2087295;28;19934;-47
2022/07/11 05:11:13;;;;;;;;;;;;;;;27.78;44.54;98745.72;2085856;28;20025;-47
2022/07/11 05:12:15;;;;;;;;;;;;;;;27.78;44.31;98751.19;2090030;28;20694;-49
2022/07/11 05:13:16;;;;;;;;;;;;;;;27.77;44.59;98750.34;2088751;28;19925;-46
2022/07/11 05:14:19;;;;;;;;;;;;;;;27.78;44.63;98745.72;2089944;28;19929;-46
2022/07/11 05:15:20;;;;;;;;;;;;;;;27.77;44.54;98746.78;2092776;28;19929;-50
2022/07/11 05:16:21;;;;;;;;;;;;;;;27.77;44.45;98742.16;2093411;28;19971;-48
2022/07/11 05:17:23;;;;;;;;;;;;;;;27.77;44.25;98742.16;2092208;28;19929;-46
2022/07/11 05:18:25;;;;;;;;;;;;;;;27.77;44.50;98753.06;2091691;28;20039;-50
2022/07/11 05:19:25;;;;;;;;;;;;;;;27.77;44.71;98753.06;2090011;28;20499;-49
2022/07/11 05:20:27;;;;;;;;;;;;;;;27.76;44.31;98747.88;2089819;28;19924;-47
2022/07/11 05:21:27;;;;;;;;;;;;;;;27.75;44.62;98751.69;2089503;28;19951;-47